Overview Statistics Trail Chart Weather Telemetry Raw packets
 

This is the latest recevied weather packets stored in our database for station/object BadBuchau. If no packets are shown the sender has not sent any weather packets the latest 10 day(s).

<< 16 17 18 19 20 >>
Time Temp. Humidity Pressure Rain* Wind** Luminosity Snow
1787790731 17.78° C 87% 1012.2 hPa 0 mm - - -
1787788931 17.78° C 86% 1012.5 hPa 0 mm - - -
1787787131 17.78° C 86% 1012.5 hPa 0 mm - - -
1787785331 18.89° C 84% 1012.7 hPa 0 mm - - -
1787783531 19.44° C 81% 1012.7 hPa 0 mm - - -
1787781731 20° C 81% 1012.8 hPa 0 mm - - -
1787779931 20° C 81% 1012.9 hPa 0 mm - - -
1787778131 20.56° C 78% 1013 hPa 0 mm - - -
1787776332 22.22° C 73% 1012.9 hPa 0 mm - - -
1787774532 22.78° C 71% 1013.3 hPa 0 mm - - -
1787772730 23.33° C 67% 1013.2 hPa 0 mm - - -
1787770931 23.89° C 65% 1013.1 hPa 0 mm - - -
1787769131 25° C 62% 1012.9 hPa 0 mm - - -
1787767330 25.56° C 59% 1012.7 hPa 0 mm - - -
1787765530 26.67° C 55% 1012.6 hPa 0 mm - - -
1787763731 27.22° C 51% 1012.6 hPa 0 mm - - -
1787761931 27.78° C 48% 1012.9 hPa 0 mm - - -
1787760131 27.78° C 49% 1013 hPa 0 mm - - -
1787758331 28.33° C 48% 1012.8 hPa 0 mm - - -
1787756530 27.78° C 50% 1013.4 hPa 0 mm - - -
1787754731 27.22° C 49% 1013.5 hPa 0 mm - - -
1787752930 27.22° C 48% 1014 hPa 0 mm - - -
1787751131 27.22° C 52% 1014.3 hPa 0 mm - - -
1787749330 26.11° C 53% 1014.3 hPa 0 mm - - -
1787747533 26.11° C 56% 1014.7 hPa 0 mm - - -

* Rain since midnight (hover to see other rain measurements)
** Current wind speed in m/s (hover to see current wind gust speed)